createdAt,value
2023-05-16T00:00:48.933Z,3.60
2023-05-16T00:03:17.145Z,3.58
2023-05-16T00:05:45.200Z,3.60
2023-05-16T00:08:13.070Z,3.60
2023-05-16T00:10:41.019Z,3.42
2023-05-16T00:13:10.617Z,3.67
2023-05-16T00:15:39.925Z,3.63
2023-05-16T00:18:08.090Z,3.38
2023-05-16T00:20:36.293Z,3.28
2023-05-16T00:23:04.278Z,3.47
2023-05-16T00:25:32.120Z,2.90
2023-05-16T00:28:00.310Z,4.22
2023-05-16T00:30:29.719Z,3.53
2023-05-16T00:32:57.633Z,3.90
2023-05-16T00:35:25.807Z,3.13
2023-05-16T00:37:53.948Z,3.67
2023-05-16T00:40:22.881Z,3.45
2023-05-16T00:42:50.928Z,3.58
2023-05-16T00:45:19.252Z,3.35
2023-05-16T00:47:48.740Z,3.10
2023-05-16T00:50:16.684Z,3.58
2023-05-16T00:52:44.994Z,3.28
2023-05-16T00:55:13.026Z,3.83
2023-05-16T00:57:42.038Z,3.50
2023-05-16T01:00:11.569Z,3.33
2023-05-16T01:02:39.674Z,3.15
2023-05-16T01:05:09.908Z,4.10
2023-05-16T01:07:37.890Z,3.03
2023-05-16T01:10:09.724Z,3.22
2023-05-16T01:12:39.560Z,3.72
2023-05-16T01:15:10.362Z,2.97
2023-05-16T01:17:47.416Z,3.70
2023-05-16T01:20:25.866Z,4.05
2023-05-16T01:23:06.060Z,3.92
2023-05-16T01:25:41.165Z,4.15
2023-05-16T01:28:10.802Z,3.40
2023-05-16T01:30:40.975Z,3.85
2023-05-16T01:33:09.982Z,3.75
2023-05-16T01:35:41.668Z,3.60
2023-05-16T01:38:13.968Z,3.58
2023-05-16T01:40:47.213Z,3.30
2023-05-16T01:43:19.116Z,3.23
2023-05-16T01:45:52.502Z,3.00
2023-05-16T01:48:24.194Z,3.60
2023-05-16T01:50:56.085Z,3.28
2023-05-16T01:53:27.727Z,2.88
2023-05-16T01:55:58.411Z,3.42
2023-05-16T01:58:30.019Z,2.85
2023-05-16T02:01:02.712Z,3.00
2023-05-16T02:03:31.287Z,3.53
2023-05-16T02:05:59.403Z,3.10
2023-05-16T02:08:28.015Z,3.03
2023-05-16T02:10:56.075Z,3.10
2023-05-16T02:13:24.072Z,2.72
2023-05-16T02:15:54.204Z,2.90
2023-05-16T02:18:23.712Z,2.97
2023-05-16T02:20:52.456Z,2.97
2023-05-16T02:23:20.554Z,3.10
2023-05-16T02:25:48.847Z,3.13
2023-05-16T02:28:16.736Z,2.45
2023-05-16T02:30:44.680Z,3.00
2023-05-16T02:33:14.253Z,3.35
2023-05-16T02:35:42.260Z,3.63
2023-05-16T02:38:10.591Z,2.90
2023-05-16T02:40:38.409Z,3.30
2023-05-16T02:43:06.454Z,3.17
2023-05-16T02:45:34.304Z,2.97
2023-05-16T02:48:02.382Z,2.80
2023-05-16T02:50:31.641Z,3.22
2023-05-16T02:52:59.942Z,2.83
2023-05-16T02:55:28.335Z,2.85
2023-05-16T02:57:56.278Z,2.95
2023-05-16T03:00:25.285Z,2.95
2023-05-16T03:02:53.782Z,2.90
2023-05-16T03:05:21.740Z,3.13
2023-05-16T03:07:51.027Z,2.67
2023-05-16T03:10:18.913Z,2.97
2023-05-16T03:12:47.442Z,2.83
2023-05-16T03:15:15.529Z,2.67
2023-05-16T03:17:43.398Z,2.72
2023-05-16T03:20:12.941Z,3.97
2023-05-16T03:22:41.326Z,2.85
2023-05-16T03:25:13.441Z,2.30
2023-05-16T03:27:42.143Z,2.53
2023-05-16T03:30:10.908Z,3.28
2023-05-16T03:32:39.579Z,3.38
2023-05-16T03:35:07.868Z,2.72
2023-05-16T03:37:35.884Z,2.83
2023-05-16T03:40:06.073Z,2.60
2023-05-16T03:42:35.401Z,3.25
2023-05-16T03:45:03.639Z,2.60
2023-05-16T03:47:32.053Z,3.10
2023-05-16T03:50:00.433Z,3.17
2023-05-16T03:52:28.382Z,2.67
2023-05-16T03:54:56.561Z,2.85
2023-05-16T03:57:24.412Z,2.72
2023-05-16T03:59:53.732Z,2.55
2023-05-16T04:02:22.360Z,3.03
2023-05-16T04:04:50.212Z,2.90
2023-05-16T04:07:18.599Z,3.20
2023-05-16T04:09:46.563Z,3.03
2023-05-16T04:12:14.453Z,2.97
2023-05-16T04:14:42.333Z,4.15
2023-05-16T04:17:12.896Z,3.28
2023-05-16T04:19:41.000Z,2.78
2023-05-16T04:22:09.080Z,3.08
2023-05-16T04:24:37.393Z,2.83
2023-05-16T04:27:09.034Z,3.15
2023-05-16T04:29:37.013Z,3.00
2023-05-16T04:32:05.369Z,3.03
2023-05-16T04:34:39.789Z,3.47
2023-05-16T04:37:09.615Z,2.47
2023-05-16T04:39:38.121Z,3.00
2023-05-16T04:42:07.044Z,3.00
2023-05-16T04:44:35.292Z,2.83
2023-05-16T04:47:03.475Z,2.72
2023-05-16T04:49:31.405Z,2.47
2023-05-16T04:52:00.660Z,3.47
2023-05-16T04:54:28.725Z,3.03
2023-05-16T04:56:57.411Z,3.10
2023-05-16T04:59:25.354Z,2.53
2023-05-16T05:01:53.531Z,2.88
2023-05-16T05:04:22.790Z,2.80
2023-05-16T05:06:50.636Z,2.90
2023-05-16T05:09:19.807Z,2.95
2023-05-16T05:11:47.936Z,3.00
2023-05-16T05:14:15.914Z,3.03
2023-05-16T05:16:44.045Z,2.42
2023-05-16T05:19:11.887Z,2.85
2023-05-16T05:21:41.302Z,2.65
2023-05-16T05:24:09.644Z,3.28
2023-05-16T05:26:39.052Z,2.28
2023-05-16T05:29:07.179Z,2.17
2023-05-16T05:31:35.341Z,3.55
2023-05-16T05:34:04.013Z,3.15
2023-05-16T05:36:32.088Z,3.17
2023-05-16T05:39:00.108Z,2.92
2023-05-16T05:41:28.115Z,2.75
2023-05-16T05:43:57.423Z,2.60
2023-05-16T05:46:25.835Z,3.20
2023-05-16T05:48:53.858Z,3.13
2023-05-16T05:51:22.178Z,2.90
2023-05-16T05:53:50.192Z,2.45
2023-05-16T05:56:18.307Z,2.65
2023-05-16T05:58:46.661Z,2.75
2023-05-16T06:01:16.159Z,2.60
2023-05-16T06:03:44.356Z,2.65
2023-05-16T06:06:12.839Z,2.83
2023-05-16T06:08:40.788Z,2.05
2023-05-16T06:11:09.067Z,2.60
2023-05-16T06:13:37.011Z,2.67
2023-05-16T06:16:07.043Z,2.38
2023-05-16T06:18:38.453Z,2.72
2023-05-16T06:21:07.004Z,2.45
2023-05-16T06:23:35.948Z,2.35
2023-05-16T06:26:04.295Z,3.20
2023-05-16T06:28:32.477Z,2.33
2023-05-16T06:31:00.565Z,2.28
2023-05-16T06:33:28.517Z,2.30
2023-05-16T06:35:57.911Z,2.35
2023-05-16T06:38:25.991Z,2.38
2023-05-16T06:40:54.136Z,2.83
2023-05-16T06:43:22.272Z,1.85
2023-05-16T06:45:50.359Z,2.28
2023-05-16T06:48:19.539Z,2.17
2023-05-16T06:50:49.286Z,2.10
2023-05-16T06:53:18.637Z,2.15
2023-05-16T06:55:46.988Z,2.10
2023-05-16T06:58:15.236Z,2.67
2023-05-16T07:00:44.497Z,1.98
2023-05-16T07:03:12.910Z,1.98
2023-05-16T07:05:41.885Z,1.92
2023-05-16T07:08:10.797Z,2.28
2023-05-16T07:10:40.442Z,1.95
2023-05-16T07:13:08.522Z,2.15
2023-05-16T07:15:36.892Z,2.38
2023-05-16T07:18:05.328Z,1.85
2023-05-16T07:20:33.526Z,1.60
2023-05-16T07:23:02.027Z,1.90
2023-05-16T07:25:31.139Z,1.90
2023-05-16T07:28:01.202Z,2.00
2023-05-16T07:30:29.713Z,2.10
2023-05-16T07:32:58.179Z,1.80
2023-05-16T07:35:26.429Z,1.83
2023-05-16T07:37:54.786Z,2.10
2023-05-16T07:40:26.125Z,1.90
2023-05-16T07:42:54.279Z,1.83
2023-05-16T07:45:23.623Z,2.05
2023-05-16T07:47:51.808Z,1.83
2023-05-16T07:50:20.217Z,2.05
2023-05-16T07:52:48.213Z,2.10
2023-05-16T07:55:16.335Z,1.95
2023-05-16T07:57:44.608Z,1.80
2023-05-16T08:00:13.504Z,1.48
2023-05-16T08:02:43.028Z,1.63
2023-05-16T08:05:11.613Z,1.30
2023-05-16T08:07:39.585Z,1.70
2023-05-16T08:10:09.432Z,1.83
2023-05-16T08:12:38.616Z,1.80
2023-05-16T08:15:07.752Z,1.40
2023-05-16T08:17:35.914Z,1.27
2023-05-16T08:20:06.066Z,1.17
2023-05-16T08:22:34.454Z,1.60
2023-05-16T08:25:02.537Z,1.00
2023-05-16T08:27:30.811Z,1.48
2023-05-16T08:29:59.168Z,1.00
2023-05-16T08:32:27.174Z,1.17
2023-05-16T08:34:55.253Z,1.23
2023-05-16T08:37:24.561Z,1.40
2023-05-16T08:39:52.776Z,1.40
2023-05-16T08:42:20.758Z,2.08
2023-05-16T08:44:48.618Z,1.67
2023-05-16T08:47:21.905Z,1.33
2023-05-16T08:49:50.164Z,1.50
2023-05-16T08:52:20.637Z,1.48
2023-05-16T08:55:02.006Z,1.38
2023-05-16T08:57:37.587Z,1.83
2023-05-16T09:00:11.789Z,1.52
2023-05-16T09:02:40.870Z,1.60
2023-05-16T09:05:10.643Z,1.63
2023-05-16T09:07:38.718Z,1.60
2023-05-16T09:10:09.499Z,2.45
2023-05-16T09:12:38.078Z,1.50
2023-05-16T09:15:08.510Z,1.80
2023-05-16T09:17:40.053Z,1.70
2023-05-16T09:20:14.190Z,1.65
2023-05-16T09:22:51.151Z,1.58
2023-05-16T09:25:29.466Z,1.60
2023-05-16T09:28:00.158Z,1.30
2023-05-16T09:30:30.135Z,1.63
2023-05-16T09:32:58.251Z,1.50
2023-05-16T09:35:43.210Z,1.67
2023-05-16T09:38:17.049Z,1.20
2023-05-16T09:40:47.070Z,1.70
2023-05-16T09:43:18.025Z,1.85
2023-05-16T09:45:48.768Z,1.55
2023-05-16T09:48:18.245Z,1.70
2023-05-16T09:50:53.011Z,1.52
2023-05-16T09:53:27.469Z,1.70
2023-05-16T09:58:32.439Z,1.92
2023-05-16T10:01:00.619Z,1.90
2023-05-16T10:03:28.758Z,1.52
2023-05-16T10:05:57.503Z,1.75
2023-05-16T10:08:27.530Z,1.60
2023-05-16T10:10:56.680Z,1.75
2023-05-16T10:13:29.877Z,1.33
2023-05-16T10:15:59.347Z,1.77
2023-05-16T10:18:31.559Z,1.85
2023-05-16T10:21:03.426Z,1.50
2023-05-16T10:23:32.831Z,1.50
2023-05-16T10:26:06.249Z,1.40
2023-05-16T10:28:36.022Z,1.40
2023-05-16T10:31:04.207Z,1.42
2023-05-16T10:33:32.072Z,1.58
2023-05-16T10:36:00.093Z,1.48
2023-05-16T10:38:28.269Z,1.38
2023-05-16T10:40:56.865Z,1.80
2023-05-16T10:43:26.793Z,1.23
2023-05-16T10:46:00.812Z,1.67
2023-05-16T10:48:32.646Z,1.48
2023-05-16T10:51:00.686Z,1.52
2023-05-16T10:53:33.096Z,1.60
2023-05-16T10:56:14.797Z,1.52
2023-05-16T10:58:48.986Z,1.35
2023-05-16T11:01:23.760Z,1.60
2023-05-16T11:04:11.517Z,1.60
2023-05-16T11:06:51.480Z,1.90
2023-05-16T11:09:26.663Z,1.65
2023-05-16T11:12:03.343Z,1.58
2023-05-16T11:14:42.591Z,1.35
2023-05-16T11:17:13.972Z,1.50
2023-05-16T11:19:49.531Z,1.80
2023-05-16T11:22:29.516Z,1.70
2023-05-16T11:25:05.240Z,1.95
2023-05-16T11:27:40.641Z,2.00
2023-05-16T11:30:19.486Z,1.55
2023-05-16T11:32:57.177Z,1.77
2023-05-16T11:35:26.788Z,1.60
2023-05-16T11:37:57.427Z,1.88
2023-05-16T11:40:27.492Z,1.90
2023-05-16T11:42:56.284Z,1.48
2023-05-16T11:45:27.507Z,1.63
2023-05-16T11:48:04.283Z,1.67
2023-05-16T11:50:32.431Z,1.55
2023-05-16T11:53:01.308Z,1.45
2023-05-16T11:55:41.315Z,1.60
2023-05-16T11:58:10.810Z,1.60
2023-05-16T12:00:38.666Z,1.63
2023-05-16T12:03:08.244Z,1.20
2023-05-16T12:05:36.522Z,1.58
2023-05-16T12:08:05.631Z,1.70
2023-05-16T12:10:35.254Z,1.30
2023-05-16T12:13:03.885Z,1.10
2023-05-16T12:15:32.080Z,1.30
2023-05-16T12:18:03.170Z,1.80
2023-05-16T12:20:32.701Z,1.73
2023-05-16T12:23:00.518Z,1.50
2023-05-16T12:25:31.124Z,1.50
2023-05-16T12:28:03.776Z,1.33
2023-05-16T12:30:33.289Z,1.48
2023-05-16T12:33:07.691Z,1.55
2023-05-16T12:35:41.804Z,1.70
2023-05-16T12:38:14.416Z,1.85
2023-05-16T12:40:49.315Z,1.55
2023-05-16T12:43:22.714Z,1.73
2023-05-16T12:45:53.642Z,1.60
2023-05-16T12:48:22.637Z,1.90
2023-05-16T12:50:55.522Z,1.52
2023-05-16T12:53:26.975Z,2.25
2023-05-16T12:56:22.740Z,1.80
2023-05-16T12:59:06.506Z,1.77
2023-05-16T13:01:39.955Z,1.45
2023-05-16T13:04:10.465Z,1.77
2023-05-16T13:06:58.565Z,1.70
2023-05-16T13:09:32.658Z,2.00
2023-05-16T13:12:12.875Z,1.60
2023-05-16T13:14:43.978Z,1.75
2023-05-16T13:17:21.917Z,1.83
2023-05-16T13:19:53.950Z,1.45
2023-05-16T13:22:25.104Z,1.70
2023-05-16T13:24:55.631Z,1.88
2023-05-16T13:27:26.937Z,1.60
2023-05-16T13:29:57.408Z,1.88
2023-05-16T13:32:27.092Z,1.80
2023-05-16T13:35:01.953Z,1.65
2023-05-16T13:37:32.841Z,1.70
2023-05-16T13:40:05.016Z,2.17
2023-05-16T13:42:39.455Z,1.83
2023-05-16T13:45:13.726Z,2.55
2023-05-16T13:47:52.001Z,2.00
2023-05-16T13:52:55.071Z,2.03
2023-05-16T13:55:24.574Z,1.90
2023-05-16T13:58:08.510Z,2.38
2023-05-16T14:00:45.979Z,1.70
2023-05-16T14:03:14.542Z,1.95
2023-05-16T14:05:43.235Z,1.52
2023-05-16T14:08:14.620Z,1.60
2023-05-16T14:10:45.396Z,1.90
2023-05-16T14:13:14.721Z,1.83
2023-05-16T14:15:46.603Z,1.98
2023-05-16T14:18:16.059Z,2.00
2023-05-16T14:20:46.370Z,1.98
2023-05-16T14:23:20.002Z,2.42
2023-05-16T14:25:48.727Z,2.25
2023-05-16T14:28:20.661Z,2.35
2023-05-16T14:30:50.929Z,2.10
2023-05-16T14:33:19.945Z,1.63
2023-05-16T14:35:55.585Z,1.83
2023-05-16T14:38:25.911Z,3.08
2023-05-16T14:41:01.769Z,14.63
2023-05-16T14:43:33.819Z,3.67
2023-05-16T14:46:01.916Z,2.47
2023-05-16T14:48:30.633Z,2.70
2023-05-16T14:51:05.017Z,2.22
2023-05-16T14:53:34.840Z,2.42
2023-05-16T14:56:09.683Z,1.80
2023-05-16T14:58:38.670Z,1.83
2023-05-16T15:01:07.055Z,2.20
2023-05-16T15:06:32.985Z,2.00
2023-05-16T15:09:31.006Z,2.00
2023-05-16T15:12:05.545Z,1.67
2023-05-16T15:14:38.877Z,1.98
2023-05-16T15:17:09.087Z,1.80
2023-05-16T15:19:37.371Z,2.00
2023-05-16T15:22:07.909Z,1.70
2023-05-16T15:24:37.316Z,2.00
2023-05-16T15:27:06.688Z,1.83
2023-05-16T15:29:37.885Z,1.88
2023-05-16T15:32:07.738Z,1.90
2023-05-16T15:34:39.411Z,1.98
2023-05-16T15:37:12.904Z,1.83
2023-05-16T15:40:03.500Z,3.08
2023-05-16T15:42:33.311Z,1.73
2023-05-16T15:45:01.646Z,1.92
2023-05-16T15:47:34.967Z,1.73
2023-05-16T15:50:06.298Z,2.05
2023-05-16T15:52:37.715Z,1.80
2023-05-16T15:55:14.479Z,1.83
2023-05-16T15:57:50.969Z,2.33
2023-05-16T16:00:29.266Z,1.83
2023-05-16T16:03:03.010Z,1.80
2023-05-16T16:05:39.631Z,1.60
2023-05-16T16:08:09.584Z,1.40
2023-05-16T16:10:42.328Z,1.58
2023-05-16T16:13:11.126Z,1.55
2023-05-16T16:15:43.639Z,1.50
2023-05-16T16:18:17.252Z,1.98
2023-05-16T16:20:47.442Z,1.50
2023-05-16T16:23:16.898Z,1.50
2023-05-16T16:25:56.585Z,1.60
2023-05-16T16:28:30.779Z,1.42
2023-05-16T16:31:02.420Z,1.75
2023-05-16T16:33:32.783Z,1.70
2023-05-16T16:36:03.119Z,1.55
2023-05-16T16:38:33.186Z,1.92
2023-05-16T16:41:07.250Z,1.60
2023-05-16T16:43:42.281Z,2.00
2023-05-16T16:46:25.122Z,1.92
2023-05-16T16:48:58.248Z,1.80
2023-05-16T16:51:37.043Z,2.20
2023-05-16T16:54:08.612Z,1.58
2023-05-16T16:59:56.503Z,2.22
2023-05-16T17:02:41.150Z,2.17
2023-05-16T17:05:32.493Z,2.03
2023-05-16T17:08:26.190Z,2.10
2023-05-16T17:18:09.714Z,2.10
2023-05-16T17:20:56.829Z,2.25
2023-05-16T17:23:32.079Z,2.20
2023-05-16T17:26:19.618Z,2.42
2023-05-16T17:29:01.274Z,2.30
2023-05-16T17:31:33.808Z,2.60
2023-05-16T17:34:22.702Z,3.17
2023-05-16T17:37:27.198Z,2.83
2023-05-16T17:40:04.664Z,3.35
2023-05-16T17:42:34.062Z,3.22
2023-05-16T17:47:53.059Z,3.47
2023-05-16T17:50:26.135Z,3.33
2023-05-16T17:53:09.963Z,3.10
2023-05-16T17:55:42.969Z,3.55
2023-05-16T17:58:12.199Z,3.53
2023-05-16T18:00:40.196Z,2.88
2023-05-16T18:03:08.591Z,2.67
2023-05-16T18:05:38.155Z,2.72
2023-05-16T18:08:08.004Z,2.58
2023-05-16T18:10:50.883Z,2.78
2023-05-16T18:13:20.638Z,2.92
2023-05-16T18:15:48.664Z,2.45
2023-05-16T18:18:16.637Z,2.10
2023-05-16T18:20:46.853Z,1.73
2023-05-16T18:23:14.975Z,2.60
2023-05-16T18:25:43.088Z,2.10
2023-05-16T18:28:11.128Z,1.98
2023-05-16T18:30:39.239Z,2.05
2023-05-16T18:33:07.381Z,2.20
2023-05-16T18:35:38.968Z,2.22
2023-05-16T18:38:28.473Z,2.20
2023-05-16T18:41:01.962Z,2.00
2023-05-16T18:43:36.171Z,2.55
2023-05-16T18:46:09.969Z,2.72
2023-05-16T18:48:46.301Z,2.85
2023-05-16T18:51:26.629Z,2.75
2023-05-16T18:54:02.227Z,2.63
2023-05-16T18:56:34.143Z,3.17
2023-05-16T18:59:09.052Z,3.10
2023-05-16T19:01:42.719Z,2.53
2023-05-16T19:04:17.843Z,3.08
2023-05-16T19:06:57.741Z,5.30
2023-05-16T19:09:29.896Z,6.78
2023-05-16T19:12:05.799Z,4.22
2023-05-16T19:14:56.271Z,3.33
2023-05-16T19:17:25.929Z,3.53
2023-05-16T19:19:58.350Z,3.47
2023-05-16T19:22:28.121Z,3.20
2023-05-16T19:25:00.007Z,4.10
2023-05-16T19:27:30.927Z,3.58
2023-05-16T19:30:00.393Z,3.42
2023-05-16T19:32:36.652Z,3.60
2023-05-16T19:35:05.517Z,4.20
2023-05-16T19:37:52.314Z,3.65
2023-05-16T19:40:40.611Z,4.55
2023-05-16T19:43:16.012Z,3.88
2023-05-16T19:46:01.640Z,3.35
2023-05-16T19:48:52.228Z,3.67
2023-05-16T19:51:40.167Z,3.40
2023-05-16T19:54:18.677Z,4.43
2023-05-16T19:56:51.202Z,3.30
2023-05-16T19:59:23.247Z,3.42
2023-05-16T20:01:52.430Z,3.35
2023-05-16T20:04:25.128Z,3.53
2023-05-16T20:06:59.892Z,3.58
2023-05-16T20:09:58.947Z,3.40
2023-05-16T20:12:34.962Z,4.20
2023-05-16T20:15:08.955Z,3.95
2023-05-16T20:17:42.202Z,4.90
2023-05-16T20:20:22.871Z,4.10
2023-05-16T20:23:11.229Z,3.92
2023-05-16T20:26:01.491Z,3.58
2023-05-16T20:28:36.895Z,3.65
2023-05-16T20:31:07.772Z,3.30
2023-05-16T20:33:36.410Z,3.47
2023-05-16T20:36:07.006Z,3.08
2023-05-16T20:38:39.197Z,3.70
2023-05-16T20:41:11.623Z,3.47
2023-05-16T20:43:51.107Z,3.00
2023-05-16T20:46:22.028Z,3.08
2023-05-16T20:48:51.178Z,2.83
2023-05-16T20:51:26.230Z,3.45
2023-05-16T20:56:37.006Z,3.03
2023-05-16T20:59:06.327Z,3.22
2023-05-16T21:01:34.847Z,3.33
2023-05-16T21:04:03.410Z,3.65
2023-05-16T21:06:31.412Z,3.60
2023-05-16T21:08:59.255Z,3.78
2023-05-16T21:11:27.923Z,3.42
2023-05-16T21:13:55.925Z,4.55
2023-05-16T21:16:25.355Z,4.85
2023-05-16T21:18:53.522Z,5.57
2023-05-16T21:21:21.560Z,4.65
2023-05-16T21:23:49.412Z,5.43
2023-05-16T21:26:17.481Z,4.63
2023-05-16T21:28:54.343Z,5.15
2023-05-16T21:31:23.376Z,4.63
2023-05-16T21:33:52.825Z,5.07
2023-05-16T21:36:21.047Z,4.53
2023-05-16T21:38:49.036Z,4.70
2023-05-16T21:41:18.210Z,4.32
2023-05-16T21:43:46.409Z,4.22
2023-05-16T21:46:14.430Z,4.35
2023-05-16T21:48:42.479Z,3.90
2023-05-16T21:51:12.130Z,4.38
2023-05-16T21:53:40.057Z,3.58
2023-05-16T21:56:08.622Z,4.00
2023-05-16T21:58:36.950Z,4.68
2023-05-16T22:01:05.318Z,4.13
2023-05-16T22:03:33.331Z,4.68
2023-05-16T22:06:02.075Z,4.28
2023-05-16T22:08:31.531Z,4.60
2023-05-16T22:10:59.589Z,4.60
2023-05-16T22:13:27.718Z,4.25
2023-05-16T22:16:04.083Z,4.50
2023-05-16T22:18:33.885Z,3.92
2023-05-16T22:21:02.235Z,4.85
2023-05-16T22:23:31.752Z,4.22
2023-05-16T22:25:59.994Z,4.82
2023-05-16T22:28:28.065Z,4.35
2023-05-16T22:30:56.298Z,4.15
2023-05-16T22:33:24.686Z,4.18
2023-05-16T22:35:53.712Z,4.47
2023-05-16T22:38:21.631Z,5.10
2023-05-16T22:40:51.187Z,5.47
2023-05-16T22:43:19.218Z,4.43
2023-05-16T22:45:47.417Z,3.95
2023-05-16T22:48:15.580Z,4.25
2023-05-16T22:50:43.538Z,4.43
2023-05-16T22:53:11.598Z,4.80
2023-05-16T22:55:39.589Z,4.25
2023-05-16T22:58:09.027Z,4.28
2023-05-16T23:00:37.179Z,4.43
2023-05-16T23:03:05.467Z,4.50
2023-05-16T23:05:33.453Z,4.70
2023-05-16T23:08:02.819Z,5.32
2023-05-16T23:10:30.705Z,4.70
2023-05-16T23:12:58.774Z,5.97
2023-05-16T23:15:28.263Z,6.65
2023-05-16T23:17:56.447Z,6.68
2023-05-16T23:20:24.611Z,6.65
2023-05-16T23:22:52.541Z,6.60
2023-05-16T23:25:20.622Z,5.65
2023-05-16T23:27:48.742Z,6.10
2023-05-16T23:30:17.001Z,6.05
2023-05-16T23:32:46.580Z,5.72
2023-05-16T23:35:14.448Z,6.38
2023-05-16T23:37:42.445Z,5.95
2023-05-16T23:40:11.139Z,5.95
2023-05-16T23:42:40.800Z,5.90
2023-05-16T23:45:10.427Z,5.28
2023-05-16T23:47:38.551Z,5.55
2023-05-16T23:50:09.079Z,5.32
2023-05-16T23:52:37.116Z,5.47
2023-05-16T23:55:05.776Z,5.65
2023-05-16T23:57:33.778Z,5.32
